CST,Max TemperatureF,Mean TemperatureF,Min TemperatureF,Max Dew PointF,MeanDew PointF,Min DewpointF,Max Humidity, Mean Humidity, Min Humidity, Max Sea Level PressureIn, Mean Sea Level PressureIn, Min Sea Level PressureIn, Max VisibilityMiles, Mean VisibilityMiles, Min VisibilityMiles, Max Wind SpeedMPH, Mean Wind SpeedMPH, Max Gust SpeedMPH,PrecipitationIn, CloudCover, Events, WindDirDegrees
2014-2-1,21,9,-3,9,1,-9,76,66,56,30.24,30.11,29.96,10,10,10,10,3,12,T,6,,162
2014-2-2,12,1,-10,0,-6,-11,100,76,52,30.43,30.36,30.18,10,10,10,12,4,13,0.00,0,,295
2014-2-3,22,6,-10,8,-2,-12,90,73,56,30.43,30.38,30.31,10,10,8,15,7,17,0.00,0,,167
2014-2-4,17,9,1,3,2,-1,88,71,54,30.53,30.45,30.38,10,8,5,16,7,18,0.00,4,,329
2014-2-5,12,2,-8,1,-3,-12,78,70,61,30.58,30.49,30.39,10,9,4,17,11,20,0.01,7,Snow,318
2014-2-6,5,-4,-13,-9,-11,-19,83,69,54,30.54,30.47,30.39,10,8,1,18,7,23,0.00,0,,259
2014-2-7,14,3,-8,-2,-7,-13,87,67,46,30.38,30.34,30.27,10,10,1,17,9,23,0.00,0,Snow,198
2014-2-8,14,3,-9,8,0,-12,91,83,75,30.31,30.21,30.11,10,4,0,10,3,11,0.05,5,Fog-Snow,156
2014-2-9,10,0,-10,0,-6,-13,95,73,50,30.46,30.32,30.16,10,8,4,17,5,20,T,2,,301
2014-2-10,9,-3,-16,-8,-13,-20,87,68,49,30.60,30.55,30.47,10,10,10,9,3,10,0.00,0,,310
2014-2-11,13,-1,-15,-3,-9,-18,92,72,52,30.61,30.47,30.21,10,10,9,21,9,26,0.00,1,,167
2014-2-12,27,18,8,11,6,-3,84,67,50,30.27,30.14,29.97,10,7,1,17,7,21,0.03,5,Snow,163
2014-2-13,32,20,8,23,13,2,84,76,67,29.95,29.68,29.44,10,6,2,28,13,35,0.01,7,Snow,202
2014-2-14,18,9,-1,4,0,-4,87,70,53,30.12,29.94,29.76,10,10,10,18,8,22,0.00,0,,333
2014-2-15,19,8,-4,14,8,-8,87,69,51,30.13,29.98,29.86,10,5,0,16,6,20,0.13,5,Fog-Snow,167
2014-2-16,24,15,5,13,9,2,87,69,50,30.31,30.19,30.00,10,9,2,21,9,24,0.01,4,Snow,3
2014-2-17,27,22,17,22,19,12,88,78,68,30.18,29.86,29.69,10,4,0,23,10,29,0.29,7,Fog-Snow,159
2014-2-18,42,27,11,28,19,10,92,74,55,29.89,29.75,29.60,10,6,0,14,7,18,T,1,Fog,177
2014-2-19,42,28,14,30,20,12,92,73,54,29.91,29.84,29.76,10,5,0,17,7,19,0.00,0,Fog,167
2014-2-20,38,35,31,33,30,24,96,80,64,29.81,29.30,29.08,10,5,1,30,10,37,0.73,8,Rain-Snow,1
2014-2-21,32,23,13,20,10,6,82,72,62,29.84,29.59,29.22,10,9,5,31,18,39,0.01,5,Snow,271
2014-2-22,21,15,9,7,4,1,67,62,56,30.19,30.04,29.86,10,10,10,20,12,24,0.00,0,,277
2014-2-23,18,11,3,5,1,-4,79,67,54,30.32,30.28,30.20,10,10,10,21,11,26,0.00,0,,284
2014-2-24,18,10,1,5,0,-5,79,64,49,30.39,30.35,30.31,10,10,4,15,8,17,T,2,Snow,300
2014-2-25,11,5,-2,5,-6,-12,87,69,50,30.39,30.35,30.28,10,10,5,21,11,24,T,1,,294
2014-2-26,18,4,-10,10,-4,-19,74,62,49,30.39,29.94,29.62,10,7,2,37,16,45,T,3,Snow,260
2014-2-27,6,-2,-10,-9,-17,-20,65,52,39,30.29,30.20,29.90,10,10,10,29,9,36,0.00,0,,332
2014-2-28,17,4,-10,13,4,-18,88,69,49,30.24,30.05,29.93,10,6,0,15,6,19,0.11,7,Fog-Snow,172